Time;durP1;ratioP1;P1;durP2;ratioP2;P2;SDS_P1;SDS_P2;PMS_P1;PMS_P2;Temp;Humidity;BMP_temperature;BMP_pressure;BME280_temperature;BME280_humidity;BME280_pressure;Samples;Min_cycle;Max_cycle;Signal;HPM_P1;HPM_P2
2023/11/19 00:02:08;;;;;;;;;;;;;;;3.30;100.00;100367.47;5050109;28;19932;-83
2023/11/19 00:04:37;;;;;;;;;;;;;;;3.32;100.00;100361.84;5055454;28;19925;-83
2023/11/19 00:07:07;;;;;;;;;;;;;;;3.33;100.00;100340.06;5059798;28;19932;-82
2023/11/19 00:09:37;;;;;;;;;;;;;;;3.32;100.00;100334.94;5053288;28;19924;-82
2023/11/19 00:12:05;;;;;;;;;;;;;;;3.34;100.00;100332.81;5044239;28;19932;-83
2023/11/19 00:14:34;;;;;;;;;;;;;;;3.32;100.00;100313.44;5054992;28;19924;-82
2023/11/19 00:17:07;;;;;;;;;;;;;;;3.33;100.00;100318.56;5049831;28;19932;-83
2023/11/19 00:19:40;;;;;;;;;;;;;;;3.36;100.00;100319.97;5063921;28;19939;-82
2023/11/19 00:22:14;;;;;;;;;;;;;;;3.34;100.00;100306.75;5046633;28;19925;-84
2023/11/19 00:24:42;;;;;;;;;;;;;;;3.39;100.00;100300.63;5048336;28;20527;-82
2023/11/19 00:27:10;;;;;;;;;;;;;;;3.38;100.00;100282.84;5055351;28;19924;-82
2023/11/19 00:29:44;;;;;;;;;;;;;;;3.37;100.00;100270.47;5053909;28;19924;-83
2023/11/19 00:32:18;;;;;;;;;;;;;;;3.34;100.00;100273.63;5052975;28;19925;-84
2023/11/19 00:34:51;;;;;;;;;;;;;;;3.42;100.00;100280.50;5043429;28;19939;-82
2023/11/19 00:37:21;;;;;;;;;;;;;;;3.44;100.00;100268.47;5053116;28;19944;-82
2023/11/19 00:39:49;;;;;;;;;;;;;;;3.41;100.00;100263.53;5050783;28;19936;-83
2023/11/19 00:42:17;;;;;;;;;;;;;;;3.44;100.00;100246.94;5067252;28;19925;-82
2023/11/19 00:44:45;;;;;;;;;;;;;;;3.46;100.00;100244.00;5069542;28;19929;-83
2023/11/19 00:47:13;;;;;;;;;;;;;;;3.49;100.00;100230.84;5050957;28;19924;-83
2023/11/19 00:49:46;;;;;;;;;;;;;;;3.48;100.00;100220.34;5045351;28;20383;-83
2023/11/19 00:52:21;;;;;;;;;;;;;;;3.47;100.00;100226.81;5054968;28;20531;-83
2023/11/19 00:54:50;;;;;;;;;;;;;;;3.45;100.00;100218.94;5079705;28;19925;-82
2023/11/19 00:57:18;;;;;;;;;;;;;;;3.47;100.00;100219.53;5043555;28;20367;-82
2023/11/19 00:59:51;;;;;;;;;;;;;;;3.47;100.00;100216.84;5062843;28;19925;-83
2023/11/19 01:02:19;;;;;;;;;;;;;;;3.53;100.00;100205.09;5054708;28;20006;-81
2023/11/19 01:04:47;;;;;;;;;;;;;;;3.49;100.00;100190.50;5062242;28;19932;-83
2023/11/19 01:07:16;;;;;;;;;;;;;;;3.50;100.00;100184.06;5047734;28;20002;-84
2023/11/19 01:09:50;;;;;;;;;;;;;;;3.50;100.00;100183.25;5052958;28;19929;-82
2023/11/19 01:12:18;;;;;;;;;;;;;;;3.47;100.00;100175.69;5052370;28;19925;-83
2023/11/19 01:14:46;;;;;;;;;;;;;;;3.50;100.00;100157.16;5075367;28;19932;-82
2023/11/19 01:17:14;;;;;;;;;;;;;;;3.46;100.00;100147.97;5070298;28;19925;-84
2023/11/19 01:19:47;;;;;;;;;;;;;;;3.46;100.00;100147.16;5048952;28;19932;-82
2023/11/19 01:22:15;;;;;;;;;;;;;;;3.46;100.00;100145.25;5061453;28;20566;-82
2023/11/19 01:24:52;;;;;;;;;;;;;;;3.47;100.00;100144.22;5047856;28;19932;-82
2023/11/19 01:27:19;;;;;;;;;;;;;;;3.45;100.00;100132.88;5045314;28;19929;-82
2023/11/19 01:29:52;;;;;;;;;;;;;;;3.46;100.00;100120.25;5054520;28;19931;-82
2023/11/19 01:32:20;;;;;;;;;;;;;;;3.50;100.00;100106.06;5052153;28;20293;-83
2023/11/19 01:34:53;;;;;;;;;;;;;;;3.45;100.00;100103.28;5061283;28;20397;-82
2023/11/19 01:37:21;;;;;;;;;;;;;;;3.47;100.00;100100.38;5064738;28;20308;-82
2023/11/19 01:39:50;;;;;;;;;;;;;;;3.52;100.00;100089.66;5047527;28;19931;-82
2023/11/19 01:42:18;;;;;;;;;;;;;;;3.55;100.00;100083.81;5050631;28;19924;-82
2023/11/19 01:44:55;;;;;;;;;;;;;;;3.53;100.00;100081.34;5061080;28;19925;-83
2023/11/19 01:47:24;;;;;;;;;;;;;;;3.54;100.00;100082.16;5075904;28;19998;-83
2023/11/19 01:49:52;;;;;;;;;;;;;;;3.55;100.00;100065.78;5060736;28;19931;-83
2023/11/19 01:52:26;;;;;;;;;;;;;;;3.49;100.00;100063.25;5050044;28;19932;-83
2023/11/19 01:54:55;;;;;;;;;;;;;;;3.55;100.00;100046.13;5054460;28;19924;-83
2023/11/19 01:57:28;;;;;;;;;;;;;;;3.58;100.00;100048.31;5069466;28;19932;-83
2023/11/19 02:00:02;;;;;;;;;;;;;;;3.56;100.00;100036.97;5045768;28;19951;-85
2023/11/19 02:02:40;;;;;;;;;;;;;;;3.57;100.00;100041.31;5071455;28;19929;-82
2023/11/19 02:05:08;;;;;;;;;;;;;;;3.57;100.00;100036.72;5053827;28;19929;-83
2023/11/19 02:07:41;;;;;;;;;;;;;;;3.59;100.00;100023.06;5049401;28;19928;-83
2023/11/19 02:10:16;;;;;;;;;;;;;;;3.58;100.00;100021.41;5066271;28;19928;-83
2023/11/19 02:12:44;;;;;;;;;;;;;;;3.58;100.00;100014.16;5048497;28;19925;-84
2023/11/19 02:15:12;;;;;;;;;;;;;;;3.60;100.00;100011.22;5054878;28;19932;-83
2023/11/19 02:17:45;;;;;;;;;;;;;;;3.61;100.00;100002.06;5043539;28;19931;-83
2023/11/19 02:20:20;;;;;;;;;;;;;;;3.60;100.00;100007.72;5059032;28;20411;-82
2023/11/19 02:22:50;;;;;;;;;;;;;;;3.64;100.00;100004.25;5050827;28;20392;-83
2023/11/19 02:25:23;;;;;;;;;;;;;;;3.64;100.00;100003.47;5061006;28;19928;-84
2023/11/19 02:27:56;;;;;;;;;;;;;;;3.64;100.00;99992.69;5060959;28;19924;-84
2023/11/19 02:30:29;;;;;;;;;;;;;;;3.65;100.00;99986.25;5065253;28;19924;-83
2023/11/19 02:32:58;;;;;;;;;;;;;;;3.69;100.00;99980.13;5051433;28;19931;-83
2023/11/19 02:35:32;;;;;;;;;;;;;;;3.67;100.00;99976.84;5054909;28;19932;-83
2023/11/19 02:38:06;;;;;;;;;;;;;;;3.61;100.00;99959.03;5073702;28;19925;-84
2023/11/19 02:40:34;;;;;;;;;;;;;;;3.70;100.00;99954.00;5077519;28;20297;-83
2023/11/19 02:43:04;;;;;;;;;;;;;;;3.64;100.00;99942.38;5051484;28;19925;-83
2023/11/19 02:45:37;;;;;;;;;;;;;;;3.67;100.00;99930.28;5057951;28;19932;-83
2023/11/19 02:48:06;;;;;;;;;;;;;;;3.64;100.00;99931.59;5070418;28;19932;-82
2023/11/19 02:50:34;;;;;;;;;;;;;;;3.65;100.00;99919.78;5055618;28;19924;-83
2023/11/19 02:53:03;;;;;;;;;;;;;;;3.67;100.00;99914.94;5051041;28;19932;-82
2023/11/19 02:55:36;;;;;;;;;;;;;;;3.68;100.00;99899.63;5049214;28;20861;-82
2023/11/19 02:58:11;;;;;;;;;;;;;;;3.70;100.00;99894.81;5056987;28;19929;-83
2023/11/19 03:00:52;;;;;;;;;;;;;;;3.68;100.00;99883.50;5050947;28;19932;-82
2023/11/19 03:03:22;;;;;;;;;;;;;;;3.70;100.00;99878.66;5051191;28;20377;-83
2023/11/19 03:05:50;;;;;;;;;;;;;;;3.75;100.00;99874.13;5049978;28;19924;-82
2023/11/19 03:08:18;;;;;;;;;;;;;;;3.72;100.00;99866.56;5063656;28;19932;-83
2023/11/19 03:10:46;;;;;;;;;;;;;;;3.78;100.00;99863.94;5058411;28;19924;-82
2023/11/19 03:13:16;;;;;;;;;;;;;;;3.76;100.00;99861.50;5067886;28;19925;-81
2023/11/19 03:15:49;;;;;;;;;;;;;;;3.78;100.00;99863.94;5055466;28;19929;-82
2023/11/19 03:18:22;;;;;;;;;;;;;;;3.77;100.00;99855.06;5047427;28;20525;-82
2023/11/19 03:20:50;;;;;;;;;;;;;;;3.78;100.00;99855.88;5062010;28;19925;-83
2023/11/19 03:23:18;;;;;;;;;;;;;;;3.79;100.00;99850.22;5049369;28;19925;-84
2023/11/19 03:25:46;;;;;;;;;;;;;;;3.79;100.00;99849.44;5055236;28;20971;-82
2023/11/19 03:28:15;;;;;;;;;;;;;;;3.78;100.00;99837.03;5068008;28;19924;-83
2023/11/19 03:30:48;;;;;;;;;;;;;;;3.85;100.00;99843.00;5053750;28;20643;-83
2023/11/19 03:33:16;;;;;;;;;;;;;;;3.81;100.00;99841.91;5055501;28;19924;-82
2023/11/19 03:35:51;;;;;;;;;;;;;;;3.78;100.00;99834.34;5054470;28;19932;-82
2023/11/19 03:38:19;;;;;;;;;;;;;;;3.83;100.00;99834.38;5054580;28;20073;-82
2023/11/19 03:40:52;;;;;;;;;;;;;;;3.85;100.00;99829.56;5044725;28;20308;-84
2023/11/19 03:43:27;;;;;;;;;;;;;;;3.90;100.00;99818.84;5049813;28;19924;-82
2023/11/19 03:45:54;;;;;;;;;;;;;;;3.88;100.00;99804.81;5052682;28;19932;-83
2023/11/19 03:48:27;;;;;;;;;;;;;;;3.94;100.00;99800.31;5072777;28;19931;-83
2023/11/19 03:50:55;;;;;;;;;;;;;;;3.89;100.00;99788.44;5062643;28;19924;-82
2023/11/19 03:53:24;;;;;;;;;;;;;;;3.89;100.00;99799.19;5059853;28;19933;-84
2023/11/19 03:55:57;;;;;;;;;;;;;;;3.88;100.00;99786.78;5048054;28;20304;-84
2023/11/19 03:58:26;;;;;;;;;;;;;;;3.90;100.00;99787.34;5046268;28;19925;-83
2023/11/19 04:00:54;;;;;;;;;;;;;;;3.95;100.00;99783.88;5052702;28;19991;-83
2023/11/19 04:03:22;;;;;;;;;;;;;;;3.97;100.00;99773.66;5073534;28;20409;-82
2023/11/19 04:05:56;;;;;;;;;;;;;;;4.03;100.00;99785.28;5049827;28;19924;-82
2023/11/19 04:08:24;;;;;;;;;;;;;;;3.98;100.00;99780.69;5055006;28;19924;-84
2023/11/19 04:10:52;;;;;;;;;;;;;;;3.98;100.00;99774.47;5064188;28;19935;-82
2023/11/19 04:13:24;;;;;;;;;;;;;;;4.03;100.00;99771.81;5038159;28;19932;-83
2023/11/19 04:15:59;;;;;;;;;;;;;;;4.02;100.00;99765.63;5055282;28;19932;-82
2023/11/19 04:18:27;;;;;;;;;;;;;;;4.03;100.00;99755.66;5060311;28;20296;-84
2023/11/19 04:21:00;;;;;;;;;;;;;;;4.02;100.00;99744.09;5044723;28;19947;-83
2023/11/19 04:23:33;;;;;;;;;;;;;;;4.07;100.00;99756.75;5048166;28;19925;-82
2023/11/19 04:26:03;;;;;;;;;;;;;;;4.03;100.00;99718.78;5072332;28;19925;-84
2023/11/19 04:28:31;;;;;;;;;;;;;;;4.11;100.00;99736.31;5057187;28;19932;-82
2023/11/19 04:31:01;;;;;;;;;;;;;;;4.17;100.00;99753.31;5076599;28;19932;-82
2023/11/19 04:33:28;;;;;;;;;;;;;;;4.15;100.00;99745.50;5055717;28;19924;-82
2023/11/19 04:35:56;;;;;;;;;;;;;;;4.18;100.00;99742.28;5041927;28;19924;-83
2023/11/19 04:38:26;;;;;;;;;;;;;;;4.16;100.00;99722.09;5053984;28;19925;-82
2023/11/19 04:41:00;;;;;;;;;;;;;;;4.25;100.00;99720.50;5047201;28;19925;-82
2023/11/19 04:43:33;;;;;;;;;;;;;;;4.24;100.00;99700.06;5051593;28;19928;-83
2023/11/19 04:46:04;;;;;;;;;;;;;;;4.25;100.00;99685.50;5061849;28;20296;-83
2023/11/19 04:48:32;;;;;;;;;;;;;;;4.32;100.00;99725.66;5061879;28;19924;-83
2023/11/19 04:50:59;;;;;;;;;;;;;;;4.37;100.00;99709.53;5047643;28;20328;-82
2023/11/19 04:53:32;;;;;;;;;;;;;;;4.34;100.00;99689.31;5056476;28;20292;-83
2023/11/19 04:56:08;;;;;;;;;;;;;;;4.41;100.00;99713.34;5050380;28;19929;-83
2023/11/19 04:58:41;;;;;;;;;;;;;;;4.42;100.00;99706.88;5069035;28;19924;-82
2023/11/19 05:01:17;;;;;;;;;;;;;;;4.39;100.00;99694.75;5058058;28;19935;-83
2023/11/19 05:03:46;;;;;;;;;;;;;;;4.43;100.00;99687.75;5056010;28;19932;-83
2023/11/19 05:06:19;;;;;;;;;;;;;;;4.43;100.00;99657.28;5045873;28;20635;-83
2023/11/19 05:08:46;;;;;;;;;;;;;;;4.47;100.00;99679.94;5044680;28;19925;-83
2023/11/19 05:11:17;;;;;;;;;;;;;;;4.51;100.00;99688.31;5052101;28;19935;-83
2023/11/19 05:13:46;;;;;;;;;;;;;;;4.68;100.00;99690.78;5068747;28;19932;-85
2023/11/19 05:16:15;;;;;;;;;;;;;;;4.66;100.00;99682.97;5054722;28;20517;-83
2023/11/19 05:18:49;;;;;;;;;;;;;;;4.65;100.00;99665.19;5045702;28;19924;-83
2023/11/19 05:21:23;;;;;;;;;;;;;;;4.65;100.00;99646.31;5056009;28;19933;-83
2023/11/19 05:23:51;;;;;;;;;;;;;;;4.64;100.00;99657.34;5067801;28;20292;-82
2023/11/19 05:26:20;;;;;;;;;;;;;;;4.71;100.00;99666.00;5061163;28;19932;-83
2023/11/19 05:28:53;;;;;;;;;;;;;;;4.73;100.00;99664.66;5050765;28;19928;-83
2023/11/19 05:31:26;;;;;;;;;;;;;;;4.76;100.00;99663.31;5046276;28;19932;-82
2023/11/19 05:34:00;;;;;;;;;;;;;;;4.75;100.00;99653.59;5043667;28;19935;-84
2023/11/19 05:36:29;;;;;;;;;;;;;;;4.77;100.00;99656.88;5059351;28;20312;-83
2023/11/19 05:38:57;;;;;;;;;;;;;;;4.83;100.00;99649.59;5046649;28;19924;-83
2023/11/19 05:41:25;;;;;;;;;;;;;;;4.86;100.00;99649.88;5048863;28;19944;-82
2023/11/19 05:43:53;;;;;;;;;;;;;;;4.91;100.00;99644.47;5050536;28;19928;-83
2023/11/19 05:46:21;;;;;;;;;;;;;;;5.01;100.00;99638.28;5051074;28;19924;-83
2023/11/19 05:48:49;;;;;;;;;;;;;;;5.11;100.00;99640.19;5052818;28;19931;-82
2023/11/19 05:51:18;;;;;;;;;;;;;;;5.23;100.00;99632.66;5061751;28;19925;-82
2023/11/19 05:53:51;;;;;;;;;;;;;;;5.29;100.00;99628.06;5052435;28;19925;-82
2023/11/19 05:56:21;;;;;;;;;;;;;;;5.34;100.00;99625.34;5040918;28;19924;-83
2023/11/19 05:58:49;;;;;;;;;;;;;;;5.34;100.00;99622.63;5051056;28;19924;-83
2023/11/19 06:01:17;;;;;;;;;;;;;;;5.38;100.00;99622.91;5072532;28;19935;-85
2023/11/19 06:03:50;;;;;;;;;;;;;;;5.38;100.00;99626.41;5041436;28;20570;-82
2023/11/19 06:06:19;;;;;;;;;;;;;;;5.40;100.00;99623.44;5047885;28;19924;-82
2023/11/19 06:08:53;;;;;;;;;;;;;;;5.44;100.00;99629.91;5045879;28;19924;-83
2023/11/19 06:11:21;;;;;;;;;;;;;;;5.50;100.00;99636.94;5059542;28;20369;-84
2023/11/19 06:13:54;;;;;;;;;;;;;;;5.52;100.00;99625.88;5045719;28;19951;-83
2023/11/19 06:16:22;;;;;;;;;;;;;;;5.56;100.00;99632.34;5057039;28;19936;-82
2023/11/19 06:18:50;;;;;;;;;;;;;;;5.54;100.00;99623.72;5051043;28;19928;-83
2023/11/19 06:21:17;;;;;;;;;;;;;;;5.55;100.00;99617.22;5075190;28;19928;-82
2023/11/19 06:23:47;;;;;;;;;;;;;;;5.61;100.00;99626.94;5050637;28;19924;-84
2023/11/19 06:26:15;;;;;;;;;;;;;;;5.65;100.00;99638.81;5051330;28;19929;-83
2023/11/19 06:28:43;;;;;;;;;;;;;;;5.68;100.00;99626.66;5043995;28;20323;-83
2023/11/19 06:31:16;;;;;;;;;;;;;;;5.72;100.00;99625.03;5054553;28;19932;-83
2023/11/19 06:33:44;;;;;;;;;;;;;;;5.76;100.00;99626.13;5069662;28;19935;-82
2023/11/19 06:36:17;;;;;;;;;;;;;;;5.82;100.00;99625.00;5071477;28;19925;-83
2023/11/19 06:38:46;;;;;;;;;;;;;;;5.87;100.00;99627.69;5069182;28;19925;-82
2023/11/19 06:41:19;;;;;;;;;;;;;;;5.96;100.00;99617.13;5063134;28;19932;-82
2023/11/19 06:43:47;;;;;;;;;;;;;;;5.99;100.00;99619.31;5055522;28;19925;-82
2023/11/19 06:46:15;;;;;;;;;;;;;;;6.02;100.00;99629.59;5056143;28;20308;-83
2023/11/19 06:48:48;;;;;;;;;;;;;;;6.04;100.00;99626.59;5051682;28;19932;-83
2023/11/19 06:51:21;;;;;;;;;;;;;;;6.07;100.00;99629.53;5064812;28;19928;-82
2023/11/19 06:53:50;;;;;;;;;;;;;;;6.07;100.00;99628.75;5070935;28;19925;-83
2023/11/19 06:56:19;;;;;;;;;;;;;;;6.19;100.00;99621.13;5053375;28;19925;-83
2023/11/19 06:58:53;;;;;;;;;;;;;;;6.18;100.00;99621.41;5054015;28;20424;-84
2023/11/19 07:01:27;;;;;;;;;;;;;;;6.28;100.00;99629.47;5074429;28;19928;-82
2023/11/19 07:03:57;;;;;;;;;;;;;;;6.27;100.00;99625.97;5065014;28;19928;-83
2023/11/19 07:06:26;;;;;;;;;;;;;;;6.26;100.00;99618.94;5065565;28;19932;-83
2023/11/19 07:08:55;;;;;;;;;;;;;;;6.27;100.00;99615.16;5061433;28;20646;-83
2023/11/19 07:11:23;;;;;;;;;;;;;;;6.34;100.00;99620.25;5054548;28;19929;-82
2023/11/19 07:13:51;;;;;;;;;;;;;;;6.43;100.00;99612.38;5046976;28;19939;-82
2023/11/19 07:16:21;;;;;;;;;;;;;;;6.55;100.00;99607.44;5049508;28;20293;-83
2023/11/19 07:18:49;;;;;;;;;;;;;;;6.68;100.00;99626.84;5057608;28;19948;-83
2023/11/19 07:21:17;;;;;;;;;;;;;;;6.66;100.00;99619.00;5054689;28;19925;-82
2023/11/19 07:23:51;;;;;;;;;;;;;;;6.84;100.00;99619.44;5066172;28;19931;-82
2023/11/19 07:26:21;;;;;;;;;;;;;;;6.82;100.00;99622.41;5050882;28;20388;-83
2023/11/19 07:28:55;;;;;;;;;;;;;;;7.04;100.00;99619.28;5060037;28;19932;-81
2023/11/19 07:31:23;;;;;;;;;;;;;;;7.13;100.00;99622.22;5074698;28;20411;-83
2023/11/19 07:33:51;;;;;;;;;;;;;;;7.16;100.00;99610.81;5049365;28;19925;-82
2023/11/19 07:36:19;;;;;;;;;;;;;;;7.20;100.00;99603.75;5063176;28;20300;-82
2023/11/19 07:38:52;;;;;;;;;;;;;;;7.38;100.00;99604.94;5054931;28;20327;-82
2023/11/19 07:41:22;;;;;;;;;;;;;;;7.45;100.00;99607.31;5059211;28;19931;-83
2023/11/19 07:43:51;;;;;;;;;;;;;;;7.54;100.00;99611.03;5055548;28;19924;-81
2023/11/19 07:46:24;;;;;;;;;;;;;;;7.63;100.00;99606.56;5049974;28;19931;-82
2023/11/19 07:48:52;;;;;;;;;;;;;;;7.73;100.00;99602.16;5044872;28;19924;-82
2023/11/19 07:51:21;;;;;;;;;;;;;;;7.97;100.00;99604.88;5057929;28;19929;-82
2023/11/19 07:53:49;;;;;;;;;;;;;;;8.09;100.00;99607.16;5053991;28;19924;-84
2023/11/19 07:56:23;;;;;;;;;;;;;;;8.12;100.00;99615.53;5074888;28;19931;-83
2023/11/19 07:58:51;;;;;;;;;;;;;;;8.19;100.00;99612.47;5056333;28;20291;-83
2023/11/19 08:01:19;;;;;;;;;;;;;;;8.42;100.00;99616.22;5047622;28;19925;-84
2023/11/19 08:03:52;;;;;;;;;;;;;;;8.58;100.00;99616.06;5045628;28;20336;-84
2023/11/19 08:06:20;;;;;;;;;;;;;;;8.59;100.00;99613.06;5056659;28;19924;-83
2023/11/19 08:08:53;;;;;;;;;;;;;;;8.81;100.00;99604.34;5062592;28;19924;-84
2023/11/19 08:11:21;;;;;;;;;;;;;;;8.85;100.00;99609.97;5057442;28;20416;-85
2023/11/19 08:13:55;;;;;;;;;;;;;;;8.86;100.00;99608.88;5051802;28;19928;-84
2023/11/19 08:16:23;;;;;;;;;;;;;;;8.98;100.00;99620.09;5044735;28;20594;-83
2023/11/19 08:18:58;;;;;;;;;;;;;;;8.93;100.00;99622.06;5065297;28;20296;-83
2023/11/19 08:21:26;;;;;;;;;;;;;;;8.99;100.00;99618.16;5063486;28;20301;-83
2023/11/19 08:23:54;;;;;;;;;;;;;;;9.17;100.00;99619.25;5053944;28;19924;-83
2023/11/19 08:26:22;;;;;;;;;;;;;;;9.21;100.00;99619.47;5058439;28;19932;-82
2023/11/19 08:28:57;;;;;;;;;;;;;;;9.28;100.00;99619.88;5066186;28;19924;-81
2023/11/19 08:31:25;;;;;;;;;;;;;;;9.31;100.00;99619.31;5067687;28;19925;-81
2023/11/19 08:33:58;;;;;;;;;;;;;;;9.39;100.00;99628.66;5069727;28;20305;-81
2023/11/19 08:36:27;;;;;;;;;;;;;;;9.41;100.00;99629.97;5052665;28;19928;-84
2023/11/19 08:38:55;;;;;;;;;;;;;;;9.45;100.00;99630.19;5062181;28;19933;-83
2023/11/19 08:41:28;;;;;;;;;;;;;;;9.48;100.00;99632.31;5051255;28;20265;-83
2023/11/19 08:44:02;;;;;;;;;;;;;;;9.47;100.00;99631.53;5065836;28;19924;-82
2023/11/19 08:46:30;;;;;;;;;;;;;;;9.53;100.00;99633.03;5054434;28;19936;-83
2023/11/19 08:48:58;;;;;;;;;;;;;;;9.54;100.00;99644.69;5067624;28;19925;-84
2023/11/19 08:51:26;;;;;;;;;;;;;;;9.53;100.00;99653.97;5065656;28;19925;-86
2023/11/19 08:53:54;;;;;;;;;;;;;;;9.52;100.00;99646.91;5059688;28;20408;-84
2023/11/19 08:56:31;;;;;;;;;;;;;;;9.58;100.00;99650.34;5066982;28;19929;-84
2023/11/19 08:59:06;;;;;;;;;;;;;;;9.63;100.00;99658.41;5047499;28;19925;-85
2023/11/19 09:01:34;;;;;;;;;;;;;;;9.58;100.00;99640.28;5047966;28;19924;-84
2023/11/19 09:04:02;;;;;;;;;;;;;;;9.62;100.00;99649.44;5061712;28;20538;-84
2023/11/19 09:06:30;;;;;;;;;;;;;;;9.65;100.00;99651.59;5048910;28;20819;-86
2023/11/19 09:09:03;;;;;;;;;;;;;;;9.63;100.00;99655.69;5050861;28;19928;-85
2023/11/19 09:11:31;;;;;;;;;;;;;;;9.71;100.00;99655.00;5049940;28;19933;-84
2023/11/19 09:14:04;;;;;;;;;;;;;;;9.64;100.00;99640.97;5050810;28;19924;-84
2023/11/19 09:16:38;;;;;;;;;;;;;;;9.69;100.00;99651.78;5063816;28;19924;-82
2023/11/19 09:19:06;;;;;;;;;;;;;;;9.75;100.00;99661.47;5058795;28;19925;-83
2023/11/19 09:21:38;;;;;;;;;;;;;;;9.78;100.00;99660.06;5048085;28;20446;-86
2023/11/19 09:24:07;;;;;;;;;;;;;;;9.81;100.00;99662.16;5067631;28;19932;-82
2023/11/19 09:26:36;;;;;;;;;;;;;;;9.75;100.00;99676.94;5050351;28;19925;-84
2023/11/19 09:29:04;;;;;;;;;;;;;;;9.84;100.00;99659.63;5050376;28;19925;-84
2023/11/19 09:31:32;;;;;;;;;;;;;;;9.86;100.00;99659.38;5051296;28;19928;-83
2023/11/19 09:34:06;;;;;;;;;;;;;;;9.84;100.00;99664.28;5050335;28;19925;-85
2023/11/19 09:36:34;;;;;;;;;;;;;;;9.96;100.00;99672.75;5054066;28;19939;-82
2023/11/19 09:39:08;;;;;;;;;;;;;;;10.01;100.00;99664.50;5057442;28;19925;-85
2023/11/19 09:41:36;;;;;;;;;;;;;;;10.07;100.00;99665.22;5069074;28;19928;-83
2023/11/19 09:44:04;;;;;;;;;;;;;;;10.18;100.00;99668.53;5049064;28;20381;-84
2023/11/19 09:46:37;;;;;;;;;;;;;;;10.17;100.00;99673.16;5044361;28;19935;-83
2023/11/19 09:49:12;;;;;;;;;;;;;;;10.12;100.00;99675.16;5059167;28;20762;-82
2023/11/19 09:51:40;;;;;;;;;;;;;;;10.15;100.00;99674.56;5057397;28;20372;-83
2023/11/19 09:54:09;;;;;;;;;;;;;;;10.16;100.00;99673.47;5048817;28;19925;-84
2023/11/19 09:56:42;;;;;;;;;;;;;;;10.12;100.00;99678.72;5046556;28;19935;-85
2023/11/19 09:59:11;;;;;;;;;;;;;;;10.20;100.00;99679.91;5040940;28;19933;-84
2023/11/19 10:01:39;;;;;;;;;;;;;;;10.17;100.00;99686.75;5032467;28;19947;-86
2023/11/19 10:04:16;;;;;;;;;;;;;;;10.30;100.00;99685.16;5029705;28;19948;-86
2023/11/19 10:06:50;;;;;;;;;;;;;;;10.37;100.00;99677.44;5034956;28;19939;-87
2023/11/19 10:09:18;;;;;;;;;;;;;;;10.42;100.00;99673.78;5034728;28;20858;-88
2023/11/19 10:11:46;;;;;;;;;;;;;;;10.39;100.00;99685.28;5033148;28;19932;-88
2023/11/19 10:14:22;;;;;;;;;;;;;;;10.51;100.00;99671.19;5032459;28;19932;-87
2023/11/19 10:16:55;;;;;;;;;;;;;;;10.53;100.00;99677.91;5031406;28;19928;-86
2023/11/19 10:19:25;;;;;;;;;;;;;;;10.50;100.00;99678.53;5035072;28;19932;-88
2023/11/19 10:21:53;;;;;;;;;;;;;;;10.50;100.00;99675.81;5028590;28;20316;-84
2023/11/19 10:24:31;;;;;;;;;;;;;;;10.50;100.00;99675.00;5029732;28;19939;-84
2023/11/19 10:27:00;;;;;;;;;;;;;;;10.51;100.00;99673.91;5043094;28;20432;-87
2023/11/19 10:29:30;;;;;;;;;;;;;;;10.61;100.00;99670.97;5034452;28;19940;-85
2023/11/19 10:32:03;;;;;;;;;;;;;;;10.55;100.00;99670.25;5048657;28;19940;-85
2023/11/19 10:34:32;;;;;;;;;;;;;;;10.50;100.00;99678.53;5033334;28;20971;-84
2023/11/19 10:37:05;;;;;;;;;;;;;;;10.58;100.00;99681.63;5054364;28;19924;-84
2023/11/19 10:39:54;;;;;;;;;;;;;;;10.66;100.00;99673.56;5025285;28;19932;-85
2023/11/19 10:42:27;;;;;;;;;;;;;;;10.62;100.00;99675.28;5027571;28;19936;-84
2023/11/19 10:44:55;;;;;;;;;;;;;;;10.70;100.00;99666.41;5028232;28;19939;-83
2023/11/19 10:47:23;;;;;;;;;;;;;;;10.69;100.00;99672.16;5042937;28;19932;-84
2023/11/19 10:49:53;;;;;;;;;;;;;;;10.70;100.00;99668.31;5029768;28;20018;-85
2023/11/19 10:52:21;;;;;;;;;;;;;;;10.65;100.00;99680.13;5030823;28;19936;-88
2023/11/19 10:54:57;;;;;;;;;;;;;;;10.68;100.00;99682.22;5055828;28;19933;-82
2023/11/19 10:57:32;;;;;;;;;;;;;;;10.69;100.00;99688.50;5022554;28;19932;-85
2023/11/19 11:00:10;;;;;;;;;;;;;;;10.54;100.00;99695.06;5025000;28;19933;-85
2023/11/19 11:02:46;;;;;;;;;;;;;;;10.46;100.00;99687.59;5046932;28;20005;-84
2023/11/19 11:05:15;;;;;;;;;;;;;;;10.44;100.00;99690.63;5043041;28;19928;-84
2023/11/19 11:07:44;;;;;;;;;;;;;;;10.26;100.00;99688.78;5029952;28;19933;-85
2023/11/19 11:10:17;;;;;;;;;;;;;;;10.24;100.00;99689.06;5030033;28;19932;-84
2023/11/19 11:12:46;;;;;;;;;;;;;;;10.26;100.00;99686.06;5031497;28;20315;-83
2023/11/19 11:15:15;;;;;;;;;;;;;;;10.18;100.00;99691.09;5033404;28;19943;-85
2023/11/19 11:17:44;;;;;;;;;;;;;;;10.21;100.00;99681.53;5032458;28;19940;-83
2023/11/19 11:20:19;;;;;;;;;;;;;;;10.13;100.00;99690.38;5032873;28;19933;-86
2023/11/19 11:22:58;;;;;;;;;;;;;;;10.14;100.00;99694.72;5037086;28;19931;-83
2023/11/19 11:25:37;;;;;;;;;;;;;;;10.22;100.00;99699.47;5032773;28;19924;-85
2023/11/19 11:28:18;;;;;;;;;;;;;;;10.24;100.00;99699.16;5037359;28;21080;-82
2023/11/19 11:30:50;;;;;;;;;;;;;;;10.21;100.00;99693.19;5049524;28;19939;-83
2023/11/19 11:33:35;;;;;;;;;;;;;;;10.20;100.00;99698.94;5051203;28;19933;-84
2023/11/19 11:36:18;;;;;;;;;;;;;;;10.17;100.00;99696.84;5032732;28;20732;-84
2023/11/19 11:38:48;;;;;;;;;;;;;;;10.19;100.00;99702.75;5031993;28;20301;-83
2023/11/19 11:41:18;;;;;;;;;;;;;;;10.23;100.00;99700.25;5031462;28;19939;-82
2023/11/19 11:43:52;;;;;;;;;;;;;;;10.23;100.00;99698.34;5031836;28;19963;-82
2023/11/19 11:46:44;;;;;;;;;;;;;;;10.33;100.00;99700.88;5049983;28;20284;-85
2023/11/19 11:49:12;;;;;;;;;;;;;;;10.34;100.00;99698.94;5052586;28;19929;-83
2023/11/19 11:51:55;;;;;;;;;;;;;;;10.29;100.00;99699.03;5029707;28;19939;-84
2023/11/19 11:54:32;;;;;;;;;;;;;;;10.20;100.00;99701.66;5053882;28;19939;-85
2023/11/19 11:57:04;;;;;;;;;;;;;;;10.29;100.00;99708.03;5003067;28;19944;-85
2023/11/19 11:59:38;;;;;;;;;;;;;;;10.35;100.00;99703.31;5029355;28;19929;-84
2023/11/19 12:02:12;;;;;;;;;;;;;;;10.60;100.00;99704.72;5035147;28;19932;-83
2023/11/19 12:04:48;;;;;;;;;;;;;;;10.54;100.00;99705.94;5037972;28;19928;-85
2023/11/19 12:07:22;;;;;;;;;;;;;;;10.60;100.00;99702.00;5039342;28;19944;-82
2023/11/19 12:09:55;;;;;;;;;;;;;;;10.54;100.00;99705.94;5046862;28;20305;-82
2023/11/19 12:12:23;;;;;;;;;;;;;;;10.62;100.00;99709.84;5028235;28;20771;-85
2023/11/19 12:15:05;;;;;;;;;;;;;;;10.58;100.00;99696.06;5030019;28;19932;-83
2023/11/19 12:17:44;;;;;;;;;;;;;;;10.49;100.00;99697.88;5029774;28;19933;-82
2023/11/19 12:20:17;;;;;;;;;;;;;;;10.51;100.00;99703.81;5049177;28;19937;-82
2023/11/19 12:22:46;;;;;;;;;;;;;;;10.43;100.00;99699.88;5033932;28;19932;-87
2023/11/19 12:25:17;;;;;;;;;;;;;;;10.41;100.00;99702.09;5045040;28;19932;-86
2023/11/19 12:27:51;;;;;;;;;;;;;;;10.27;100.00;99704.78;5040430;28;19932;-88
2023/11/19 12:30:22;;;;;;;;;;;;;;;10.28;100.00;99697.44;5053221;28;20444;-88
2023/11/19 12:32:50;;;;;;;;;;;;;;;10.32;100.00;99699.25;5030866;28;19943;-88
2023/11/19 12:35:18;;;;;;;;;;;;;;;10.24;100.00;99699.94;5046848;28;20587;-87
2023/11/19 12:37:52;;;;;;;;;;;;;;;10.22;100.00;99694.03;5030875;28;19924;-85
2023/11/19 12:40:28;;;;;;;;;;;;;;;10.28;100.00;99692.00;5038412;28;19935;-86
2023/11/19 12:43:01;;;;;;;;;;;;;;;10.28;100.00;99692.00;5039775;28;19991;-86
2023/11/19 12:45:35;;;;;;;;;;;;;;;10.22;100.00;99694.03;5030462;28;19943;-85
2023/11/19 12:48:07;;;;;;;;;;;;;;;10.24;100.00;99691.78;5028536;28;19928;-85
2023/11/19 12:50:53;;;;;;;;;;;;;;;10.17;100.00;99696.84;5032866;28;19939;-83
2023/11/19 12:53:22;;;;;;;;;;;;;;;10.08;100.00;99694.03;5034269;28;19932;-85
2023/11/19 12:55:52;;;;;;;;;;;;;;;10.13;100.00;99693.09;5007486;28;19932;-86
2023/11/19 12:58:29;;;;;;;;;;;;;;;10.14;100.00;99690.09;5029928;28;20007;-84
2023/11/19 13:01:03;;;;;;;;;;;;;;;10.08;100.00;99691.31;5038103;28;19932;-86
2023/11/19 13:03:32;;;;;;;;;;;;;;;10.19;100.00;99692.72;5025890;28;19929;-87